sensor_id;sensor_type;location;lat;lon;timestamp;pressure;altitude;pressure_sealevel;temperature;humidity
19761;BME280;10039;42.632;23.408;2023-10-31T00:01:52;95214.66;;;13.18;66.79
19761;BME280;10039;42.632;23.408;2023-10-31T00:04:18;95197.81;;;13.18;66.63
19761;BME280;10039;42.632;23.408;2023-10-31T00:06:43;95206.19;;;13.20;66.80
19761;BME280;10039;42.632;23.408;2023-10-31T00:09:09;95200.75;;;13.23;66.28
19761;BME280;10039;42.632;23.408;2023-10-31T00:11:37;95175.72;;;12.98;66.23
19761;BME280;10039;42.632;23.408;2023-10-31T00:14:03;95201.47;;;13.24;66.55
19761;BME280;10039;42.632;23.408;2023-10-31T00:16:28;95203.94;;;13.18;66.74
19761;BME280;10039;42.632;23.408;2023-10-31T00:18:54;95196.66;;;13.19;66.29
19761;BME280;10039;42.632;23.408;2023-10-31T00:21:20;95201.09;;;13.09;66.64
19761;BME280;10039;42.632;23.408;2023-10-31T00:23:48;95203.75;;;13.09;67.01
19761;BME280;10039;42.632;23.408;2023-10-31T00:26:15;95188.84;;;13.08;66.72
19761;BME280;10039;42.632;23.408;2023-10-31T00:28:41;95190.88;;;13.20;66.48
19761;BME280;10039;42.632;23.408;2023-10-31T00:31:07;95174.22;;;12.97;66.32
19761;BME280;10039;42.632;23.408;2023-10-31T00:33:36;95184.19;;;12.96;66.69
19761;BME280;10039;42.632;23.408;2023-10-31T00:36:02;95187.72;;;12.93;67.11
19761;BME280;10039;42.632;23.408;2023-10-31T00:38:28;95179.31;;;13.07;66.67
19761;BME280;10039;42.632;23.408;2023-10-31T00:40:53;95188.03;;;13.11;65.95
19761;BME280;10039;42.632;23.408;2023-10-31T00:43:19;95187.28;;;12.95;66.55
19761;BME280;10039;42.632;23.408;2023-10-31T00:45:44;95174.50;;;13.02;66.35
19761;BME280;10039;42.632;23.408;2023-10-31T00:48:10;95180.75;;;13.12;65.89
19761;BME280;10039;42.632;23.408;2023-10-31T00:50:35;95186.03;;;12.99;66.59
19761;BME280;10039;42.632;23.408;2023-10-31T00:53:01;95181.59;;;12.93;66.40
19761;BME280;10039;42.632;23.408;2023-10-31T00:55:26;95149.34;;;12.80;66.47
19761;BME280;10039;42.632;23.408;2023-10-31T00:57:52;95170.88;;;12.93;66.27
19761;BME280;10039;42.632;23.408;2023-10-31T01:00:18;95178.00;;;12.99;66.41
19761;BME280;10039;42.632;23.408;2023-10-31T01:02:43;95175.16;;;12.90;66.75
19761;BME280;10039;42.632;23.408;2023-10-31T01:05:10;95170.19;;;12.73;66.73
19761;BME280;10039;42.632;23.408;2023-10-31T01:07:36;95166.50;;;12.67;66.72
19761;BME280;10039;42.632;23.408;2023-10-31T01:10:02;95162.50;;;12.75;66.87
19761;BME280;10039;42.632;23.408;2023-10-31T01:12:28;95155.22;;;12.75;66.90
19761;BME280;10039;42.632;23.408;2023-10-31T01:14:54;95155.97;;;12.92;66.42
19761;BME280;10039;42.632;23.408;2023-10-31T01:17:20;95159.16;;;12.71;67.17
19761;BME280;10039;42.632;23.408;2023-10-31T01:19:46;95155.63;;;12.74;67.20
19761;BME280;10039;42.632;23.408;2023-10-31T01:22:12;95148.88;;;12.69;66.98
19761;BME280;10039;42.632;23.408;2023-10-31T01:24:37;95143.94;;;12.52;67.13
19761;BME280;10039;42.632;23.408;2023-10-31T01:27:03;95150.59;;;12.60;67.43
19761;BME280;10039;42.632;23.408;2023-10-31T01:29:28;95153.56;;;12.65;67.03
19761;BME280;10039;42.632;23.408;2023-10-31T01:31:54;95161.50;;;12.69;67.39
19761;BME280;10039;42.632;23.408;2023-10-31T01:34:19;95160.81;;;12.81;67.02
19761;BME280;10039;42.632;23.408;2023-10-31T01:36:45;95154.97;;;12.70;66.84
19761;BME280;10039;42.632;23.408;2023-10-31T01:39:11;95155.47;;;12.65;67.23
19761;BME280;10039;42.632;23.408;2023-10-31T01:41:36;95156.66;;;12.48;67.19
19761;BME280;10039;42.632;23.408;2023-10-31T01:44:02;95154.97;;;12.54;67.24
19761;BME280;10039;42.632;23.408;2023-10-31T01:46:27;95142.91;;;12.30;66.93
19761;BME280;10039;42.632;23.408;2023-10-31T01:48:53;95131.69;;;12.19;67.37
19761;BME280;10039;42.632;23.408;2023-10-31T01:51:18;95157.69;;;12.19;67.95
19761;BME280;10039;42.632;23.408;2023-10-31T01:53:44;95140.56;;;12.16;68.02
19761;BME280;10039;42.632;23.408;2023-10-31T01:56:10;95147.59;;;12.26;68.28
19761;BME280;10039;42.632;23.408;2023-10-31T01:58:36;95149.50;;;12.10;68.62
19761;BME280;10039;42.632;23.408;2023-10-31T02:01:03;95146.53;;;12.04;68.10
19761;BME280;10039;42.632;23.408;2023-10-31T02:03:29;95151.97;;;12.01;68.39
19761;BME280;10039;42.632;23.408;2023-10-31T02:05:56;95146.69;;;11.97;68.74
19761;BME280;10039;42.632;23.408;2023-10-31T02:08:22;95145.66;;;12.11;68.11
19761;BME280;10039;42.632;23.408;2023-10-31T02:10:48;95139.19;;;12.08;68.48
19761;BME280;10039;42.632;23.408;2023-10-31T02:13:17;95112.69;;;11.98;67.65
19761;BME280;10039;42.632;23.408;2023-10-31T02:15:43;95132.69;;;12.09;67.86
19761;BME280;10039;42.632;23.408;2023-10-31T02:18:09;95132.28;;;12.11;67.99
19761;BME280;10039;42.632;23.408;2023-10-31T02:20:35;95130.28;;;11.95;68.23
19761;BME280;10039;42.632;23.408;2023-10-31T02:23:04;95130.47;;;11.88;68.78
19761;BME280;10039;42.632;23.408;2023-10-31T02:25:30;95126.97;;;11.91;68.69
19761;BME280;10039;42.632;23.408;2023-10-31T02:27:56;95125.63;;;11.99;68.47
19761;BME280;10039;42.632;23.408;2023-10-31T02:30:22;95124.31;;;12.07;67.99
19761;BME280;10039;42.632;23.408;2023-10-31T02:32:47;95121.38;;;12.02;67.86
19761;BME280;10039;42.632;23.408;2023-10-31T02:35:17;95110.53;;;12.09;67.48
19761;BME280;10039;42.632;23.408;2023-10-31T02:37:44;95107.97;;;12.21;67.01
19761;BME280;10039;42.632;23.408;2023-10-31T02:40:10;95085.34;;;12.06;66.95
19761;BME280;10039;42.632;23.408;2023-10-31T02:42:35;95118.06;;;12.29;66.52
19761;BME280;10039;42.632;23.408;2023-10-31T02:45:01;95130.19;;;12.34;66.02
19761;BME280;10039;42.632;23.408;2023-10-31T02:47:26;95126.69;;;12.21;66.34
19761;BME280;10039;42.632;23.408;2023-10-31T02:49:52;95122.66;;;12.29;66.67
19761;BME280;10039;42.632;23.408;2023-10-31T02:52:18;95119.50;;;12.34;66.74
19761;BME280;10039;42.632;23.408;2023-10-31T02:54:43;95123.94;;;12.40;66.22
19761;BME280;10039;42.632;23.408;2023-10-31T02:57:09;95101.59;;;12.15;65.60
19761;BME280;10039;42.632;23.408;2023-10-31T02:59:34;95126.69;;;12.37;65.75
19761;BME280;10039;42.632;23.408;2023-10-31T03:02:00;95127.19;;;12.32;65.62
19761;BME280;10039;42.632;23.408;2023-10-31T03:04:25;95119.00;;;12.23;65.34
19761;BME280;10039;42.632;23.408;2023-10-31T03:06:51;95127.59;;;12.30;65.86
19761;BME280;10039;42.632;23.408;2023-10-31T03:09:16;95126.28;;;12.38;65.66
19761;BME280;10039;42.632;23.408;2023-10-31T03:11:42;95118.66;;;12.21;65.78
19761;BME280;10039;42.632;23.408;2023-10-31T03:14:07;95123.34;;;12.33;65.72
19761;BME280;10039;42.632;23.408;2023-10-31T03:16:33;95128.88;;;12.26;65.58
19761;BME280;10039;42.632;23.408;2023-10-31T03:18:58;95102.75;;;12.14;66.13
19761;BME280;10039;42.632;23.408;2023-10-31T03:21:24;95125.34;;;12.29;65.66
19761;BME280;10039;42.632;23.408;2023-10-31T03:23:51;95130.88;;;12.38;65.61
19761;BME280;10039;42.632;23.408;2023-10-31T03:26:19;95125.50;;;12.38;65.52
19761;BME280;10039;42.632;23.408;2023-10-31T03:28:45;95127.13;;;12.35;65.39
19761;BME280;10039;42.632;23.408;2023-10-31T03:31:12;95108.09;;;12.30;64.94
19761;BME280;10039;42.632;23.408;2023-10-31T03:33:38;95124.78;;;12.37;65.10
19761;BME280;10039;42.632;23.408;2023-10-31T03:36:05;95104.25;;;12.31;65.33
19761;BME280;10039;42.632;23.408;2023-10-31T03:38:31;95107.88;;;12.40;64.86
19761;BME280;10039;42.632;23.408;2023-10-31T03:40:57;95097.50;;;12.27;64.94
19761;BME280;10039;42.632;23.408;2023-10-31T03:43:22;95105.34;;;12.49;64.65
19761;BME280;10039;42.632;23.408;2023-10-31T03:45:48;95095.47;;;12.46;64.67
19761;BME280;10039;42.632;23.408;2023-10-31T03:48:15;95106.94;;;12.47;64.45
19761;BME280;10039;42.632;23.408;2023-10-31T03:50:41;95095.41;;;12.34;64.77
19761;BME280;10039;42.632;23.408;2023-10-31T03:53:07;95095.75;;;12.20;65.34
19761;BME280;10039;42.632;23.408;2023-10-31T03:55:32;95097.75;;;12.16;65.24
19761;BME280;10039;42.632;23.408;2023-10-31T03:57:58;95095.22;;;12.09;65.92
19761;BME280;10039;42.632;23.408;2023-10-31T04:00:24;95102.25;;;12.03;65.92
19761;BME280;10039;42.632;23.408;2023-10-31T04:02:50;95089.34;;;11.82;66.96
19761;BME280;10039;42.632;23.408;2023-10-31T04:05:15;95086.91;;;11.52;68.39
19761;BME280;10039;42.632;23.408;2023-10-31T04:07:41;95082.44;;;11.65;67.95
19761;BME280;10039;42.632;23.408;2023-10-31T04:10:08;95081.22;;;11.70;67.83
19761;BME280;10039;42.632;23.408;2023-10-31T04:12:34;95100.44;;;11.81;67.01
19761;BME280;10039;42.632;23.408;2023-10-31T04:15:01;95085.16;;;11.81;66.81
19761;BME280;10039;42.632;23.408;2023-10-31T04:17:26;95103.44;;;11.83;66.67
19761;BME280;10039;42.632;23.408;2023-10-31T04:19:52;95095.28;;;11.90;66.78
19761;BME280;10039;42.632;23.408;2023-10-31T04:22:18;95071.94;;;11.74;66.61
19761;BME280;10039;42.632;23.408;2023-10-31T04:24:44;95092.66;;;12.06;66.43
19761;BME280;10039;42.632;23.408;2023-10-31T04:27:09;95095.88;;;11.97;66.13
19761;BME280;10039;42.632;23.408;2023-10-31T04:29:35;95045.19;;;11.74;65.69
19761;BME280;10039;42.632;23.408;2023-10-31T04:32:00;95093.72;;;12.08;65.99
19761;BME280;10039;42.632;23.408;2023-10-31T04:34:26;95051.06;;;11.85;66.00
19761;BME280;10039;42.632;23.408;2023-10-31T04:36:52;95059.94;;;11.82;66.25
19761;BME280;10039;42.632;23.408;2023-10-31T04:39:17;95062.50;;;11.86;66.24
19761;BME280;10039;42.632;23.408;2023-10-31T04:41:43;95084.19;;;11.91;66.11
19761;BME280;10039;42.632;23.408;2023-10-31T04:44:08;95077.31;;;11.90;66.36
19761;BME280;10039;42.632;23.408;2023-10-31T04:46:34;95065.16;;;11.70;66.25
19761;BME280;10039;42.632;23.408;2023-10-31T04:48:59;95063.72;;;11.65;66.52
19761;BME280;10039;42.632;23.408;2023-10-31T04:51:25;95086.97;;;11.68;66.93
19761;BME280;10039;42.632;23.408;2023-10-31T04:53:50;95096.56;;;11.66;66.90
19761;BME280;10039;42.632;23.408;2023-10-31T04:56:17;95100.41;;;11.65;67.56
19761;BME280;10039;42.632;23.408;2023-10-31T04:58:43;95079.81;;;11.26;67.62
19761;BME280;10039;42.632;23.408;2023-10-31T05:01:10;95104.38;;;11.37;67.62
19761;BME280;10039;42.632;23.408;2023-10-31T05:03:36;95103.34;;;11.31;67.93
19761;BME280;10039;42.632;23.408;2023-10-31T05:06:02;95102.47;;;11.18;68.36
19761;BME280;10039;42.632;23.408;2023-10-31T05:08:29;95096.84;;;11.13;68.43
19761;BME280;10039;42.632;23.408;2023-10-31T05:10:54;95091.69;;;11.03;68.33
19761;BME280;10039;42.632;23.408;2023-10-31T05:13:20;95099.09;;;11.14;68.43
19761;BME280;10039;42.632;23.408;2023-10-31T05:15:46;95087.31;;;10.93;69.05
19761;BME280;10039;42.632;23.408;2023-10-31T05:18:12;95088.25;;;10.83;69.15
19761;BME280;10039;42.632;23.408;2023-10-31T05:20:37;95088.63;;;11.04;68.66
19761;BME280;10039;42.632;23.408;2023-10-31T05:23:06;95076.81;;;11.02;69.01
19761;BME280;10039;42.632;23.408;2023-10-31T05:25:32;95067.94;;;10.89;68.72
19761;BME280;10039;42.632;23.408;2023-10-31T05:27:57;95060.88;;;10.79;69.04
19761;BME280;10039;42.632;23.408;2023-10-31T05:30:24;95086.09;;;10.97;68.93
19761;BME280;10039;42.632;23.408;2023-10-31T05:32:51;95099.22;;;11.08;69.00
19761;BME280;10039;42.632;23.408;2023-10-31T05:35:16;95093.75;;;11.14;68.52
19761;BME280;10039;42.632;23.408;2023-10-31T05:37:42;95100.06;;;11.24;68.22
19761;BME280;10039;42.632;23.408;2023-10-31T05:40:08;95105.13;;;11.18;68.04
19761;BME280;10039;42.632;23.408;2023-10-31T05:42:34;95109.22;;;11.23;68.11
19761;BME280;10039;42.632;23.408;2023-10-31T05:44:59;95113.16;;;11.18;68.58
19761;BME280;10039;42.632;23.408;2023-10-31T05:47:25;95106.16;;;11.24;68.54
19761;BME280;10039;42.632;23.408;2023-10-31T05:49:51;95120.06;;;11.35;67.53
19761;BME280;10039;42.632;23.408;2023-10-31T05:52:17;95112.50;;;11.50;67.20
19761;BME280;10039;42.632;23.408;2023-10-31T05:54:42;95108.16;;;11.59;67.30
19761;BME280;10039;42.632;23.408;2023-10-31T05:57:08;95102.25;;;11.68;66.59
19761;BME280;10039;42.632;23.408;2023-10-31T05:59:33;95094.72;;;11.63;66.71
19761;BME280;10039;42.632;23.408;2023-10-31T06:01:59;95094.47;;;11.57;67.50
19761;BME280;10039;42.632;23.408;2023-10-31T06:04:24;95125.41;;;11.74;67.23
19761;BME280;10039;42.632;23.408;2023-10-31T06:06:51;95132.34;;;11.72;67.42
19761;BME280;10039;42.632;23.408;2023-10-31T06:09:17;95126.44;;;11.80;67.00
19761;BME280;10039;42.632;23.408;2023-10-31T06:11:42;95134.78;;;11.82;67.86
19761;BME280;10039;42.632;23.408;2023-10-31T06:14:10;95118.28;;;11.87;66.93
19761;BME280;10039;42.632;23.408;2023-10-31T06:16:43;95143.03;;;12.07;66.78
19761;BME280;10039;42.632;23.408;2023-10-31T06:19:09;95132.09;;;12.02;67.04
19761;BME280;10039;42.632;23.408;2023-10-31T06:21:35;95137.44;;;12.18;66.48
19761;BME280;10039;42.632;23.408;2023-10-31T06:24:03;95151.75;;;12.27;66.71
19761;BME280;10039;42.632;23.408;2023-10-31T06:26:28;95144.16;;;12.26;66.86
19761;BME280;10039;42.632;23.408;2023-10-31T06:28:54;95147.94;;;12.44;66.95
19761;BME280;10039;42.632;23.408;2023-10-31T06:31:20;95143.59;;;12.50;66.85
19761;BME280;10039;42.632;23.408;2023-10-31T06:33:46;95145.00;;;12.54;66.99
19761;BME280;10039;42.632;23.408;2023-10-31T06:36:11;95145.09;;;12.51;67.46
19761;BME280;10039;42.632;23.408;2023-10-31T06:38:37;95151.03;;;12.58;66.99
19761;BME280;10039;42.632;23.408;2023-10-31T06:41:03;95161.44;;;12.72;66.47
19761;BME280;10039;42.632;23.408;2023-10-31T06:43:28;95149.59;;;12.70;65.97
19761;BME280;10039;42.632;23.408;2023-10-31T06:45:54;95164.19;;;12.85;66.23
19761;BME280;10039;42.632;23.408;2023-10-31T06:48:36;95156.81;;;12.89;66.28
19761;BME280;10039;42.632;23.408;2023-10-31T06:51:02;95125.50;;;12.70;66.59
19761;BME280;10039;42.632;23.408;2023-10-31T06:53:27;95141.41;;;13.09;66.14
19761;BME280;10039;42.632;23.408;2023-10-31T06:55:53;95144.69;;;13.29;66.10
19761;BME280;10039;42.632;23.408;2023-10-31T06:58:18;95135.09;;;13.43;65.82
19761;BME280;10039;42.632;23.408;2023-10-31T07:00:44;95128.78;;;13.50;65.77
19761;BME280;10039;42.632;23.408;2023-10-31T07:03:09;95129.59;;;13.75;64.96
19761;BME280;10039;42.632;23.408;2023-10-31T07:05:40;95115.69;;;13.93;64.63
19761;BME280;10039;42.632;23.408;2023-10-31T07:08:05;95121.47;;;14.04;64.13
19761;BME280;10039;42.632;23.408;2023-10-31T07:10:31;95120.53;;;14.10;64.53
19761;BME280;10039;42.632;23.408;2023-10-31T07:12:56;95127.97;;;14.31;63.97
19761;BME280;10039;42.632;23.408;2023-10-31T07:15:24;95130.09;;;14.49;63.63
19761;BME280;10039;42.632;23.408;2023-10-31T07:17:49;95129.44;;;14.57;63.97
19761;BME280;10039;42.632;23.408;2023-10-31T07:20:15;95129.13;;;14.55;62.75
19761;BME280;10039;42.632;23.408;2023-10-31T07:22:41;95105.00;;;14.76;62.22
19761;BME280;10039;42.632;23.408;2023-10-31T07:25:07;95107.78;;;14.85;62.11
19761;BME280;10039;42.632;23.408;2023-10-31T07:27:32;95120.88;;;14.96;62.39
19761;BME280;10039;42.632;23.408;2023-10-31T07:29:58;95121.03;;;15.14;61.78
19761;BME280;10039;42.632;23.408;2023-10-31T07:32:24;95120.91;;;15.30;61.22
19761;BME280;10039;42.632;23.408;2023-10-31T07:34:50;95117.59;;;15.47;60.87
19761;BME280;10039;42.632;23.408;2023-10-31T07:37:15;95102.81;;;15.52;60.11
19761;BME280;10039;42.632;23.408;2023-10-31T07:39:41;95115.22;;;15.71;59.80
19761;BME280;10039;42.632;23.408;2023-10-31T07:42:07;95109.56;;;15.77;59.83
19761;BME280;10039;42.632;23.408;2023-10-31T07:44:33;95105.72;;;15.87;59.86
19761;BME280;10039;42.632;23.408;2023-10-31T07:46:59;95097.78;;;15.84;60.26
19761;BME280;10039;42.632;23.408;2023-10-31T07:49:24;95089.25;;;15.76;60.43
19761;BME280;10039;42.632;23.408;2023-10-31T07:51:50;95086.47;;;15.89;60.60
19761;BME280;10039;42.632;23.408;2023-10-31T07:54:15;95080.53;;;16.03;60.29
19761;BME280;10039;42.632;23.408;2023-10-31T07:56:41;95073.22;;;16.12;59.88
19761;BME280;10039;42.632;23.408;2023-10-31T07:59:07;95090.06;;;15.95;61.02
19761;BME280;10039;42.632;23.408;2023-10-31T08:01:33;95081.56;;;15.96;60.93
19761;BME280;10039;42.632;23.408;2023-10-31T08:03:59;95060.75;;;15.97;61.18
19761;BME280;10039;42.632;23.408;2023-10-31T08:06:25;95057.50;;;16.02;61.27
19761;BME280;10039;42.632;23.408;2023-10-31T08:08:50;95065.66;;;15.89;61.33
19761;BME280;10039;42.632;23.408;2023-10-31T08:11:16;95069.28;;;15.95;61.33
19761;BME280;10039;42.632;23.408;2023-10-31T08:13:42;95053.28;;;16.01;61.36
19761;BME280;10039;42.632;23.408;2023-10-31T08:16:08;95063.66;;;16.11;61.57
19761;BME280;10039;42.632;23.408;2023-10-31T08:18:34;95034.34;;;16.04;60.57
19761;BME280;10039;42.632;23.408;2023-10-31T08:20:59;95024.28;;;16.05;60.37
19761;BME280;10039;42.632;23.408;2023-10-31T08:23:25;95047.69;;;16.17;60.26
19761;BME280;10039;42.632;23.408;2023-10-31T08:25:51;95061.69;;;16.33;60.13
19761;BME280;10039;42.632;23.408;2023-10-31T08:28:17;95060.78;;;16.36;59.79
19761;BME280;10039;42.632;23.408;2023-10-31T08:30:42;95055.53;;;16.33;60.47
19761;BME280;10039;42.632;23.408;2023-10-31T08:33:08;95043.69;;;16.30;60.33
19761;BME280;10039;42.632;23.408;2023-10-31T08:35:34;95037.59;;;16.39;60.07
19761;BME280;10039;42.632;23.408;2023-10-31T08:37:59;95028.47;;;16.36;59.54
19761;BME280;10039;42.632;23.408;2023-10-31T08:40:25;95030.44;;;16.45;59.80
19761;BME280;10039;42.632;23.408;2023-10-31T08:42:51;95014.25;;;16.45;60.13
19761;BME280;10039;42.632;23.408;2023-10-31T08:45:16;95012.47;;;16.51;60.80
19761;BME280;10039;42.632;23.408;2023-10-31T08:47:42;95017.09;;;16.50;60.58
19761;BME280;10039;42.632;23.408;2023-10-31T08:50:07;95010.81;;;16.53;60.76
19761;BME280;10039;42.632;23.408;2023-10-31T08:52:37;95006.06;;;16.66;59.87
19761;BME280;10039;42.632;23.408;2023-10-31T08:55:03;94997.81;;;16.70;60.36
19761;BME280;10039;42.632;23.408;2023-10-31T08:57:29;95003.78;;;16.91;59.97
19761;BME280;10039;42.632;23.408;2023-10-31T08:59:55;94979.53;;;17.00;59.33
19761;BME280;10039;42.632;23.408;2023-10-31T09:02:20;94988.06;;;17.17;58.78
19761;BME280;10039;42.632;23.408;2023-10-31T09:04:46;94965.56;;;17.20;57.41
19761;BME280;10039;42.632;23.408;2023-10-31T09:07:11;94964.97;;;17.07;57.46
19761;BME280;10039;42.632;23.408;2023-10-31T09:09:37;94959.31;;;16.96;57.76
19761;BME280;10039;42.632;23.408;2023-10-31T09:12:02;94965.91;;;16.95;56.63
19761;BME280;10039;42.632;23.408;2023-10-31T09:14:28;94958.72;;;17.01;57.53
19761;BME280;10039;42.632;23.408;2023-10-31T09:16:53;94950.00;;;17.15;57.61
19761;BME280;10039;42.632;23.408;2023-10-31T09:19:19;94930.91;;;17.27;57.32
19761;BME280;10039;42.632;23.408;2023-10-31T09:21:44;94940.41;;;17.32;55.96
19761;BME280;10039;42.632;23.408;2023-10-31T09:24:11;94936.78;;;17.26;55.22
19761;BME280;10039;42.632;23.408;2023-10-31T09:26:36;94906.13;;;17.05;54.95
19761;BME280;10039;42.632;23.408;2023-10-31T09:29:03;94902.09;;;17.01;54.23
19761;BME280;10039;42.632;23.408;2023-10-31T09:31:28;94933.78;;;17.24;54.04
19761;BME280;10039;42.632;23.408;2023-10-31T09:33:54;94921.34;;;17.26;55.18
19761;BME280;10039;42.632;23.408;2023-10-31T09:36:19;94912.22;;;17.24;54.53
19761;BME280;10039;42.632;23.408;2023-10-31T09:38:45;94914.63;;;17.22;52.74
19761;BME280;10039;42.632;23.408;2023-10-31T09:41:12;94909.22;;;17.22;52.83
19761;BME280;10039;42.632;23.408;2023-10-31T09:43:38;94894.53;;;17.23;52.97
19761;BME280;10039;42.632;23.408;2023-10-31T09:46:03;94902.75;;;17.37;55.15
19761;BME280;10039;42.632;23.408;2023-10-31T09:48:30;94894.41;;;17.59;53.99
19761;BME280;10039;42.632;23.408;2023-10-31T09:50:56;94881.38;;;17.57;51.63
19761;BME280;10039;42.632;23.408;2023-10-31T09:53:23;94883.00;;;17.64;50.60
19761;BME280;10039;42.632;23.408;2023-10-31T09:55:49;94841.34;;;17.56;53.16
19761;BME280;10039;42.632;23.408;2023-10-31T09:58:15;94859.47;;;17.88;52.46
19761;BME280;10039;42.632;23.408;2023-10-31T10:00:41;94857.53;;;18.02;52.83
19761;BME280;10039;42.632;23.408;2023-10-31T10:03:07;94863.25;;;18.04;51.06
19761;BME280;10039;42.632;23.408;2023-10-31T10:05:36;94856.81;;;18.02;50.51
19761;BME280;10039;42.632;23.408;2023-10-31T10:08:03;94854.78;;;18.11;51.53
19761;BME280;10039;42.632;23.408;2023-10-31T10:10:29;94840.25;;;18.09;50.83
19761;BME280;10039;42.632;23.408;2023-10-31T10:12:57;94834.09;;;18.08;51.07
19761;BME280;10039;42.632;23.408;2023-10-31T10:15:24;94806.66;;;17.87;48.33
19761;BME280;10039;42.632;23.408;2023-10-31T10:17:51;94833.19;;;18.11;48.46
19761;BME280;10039;42.632;23.408;2023-10-31T10:20:17;94821.69;;;18.25;49.11
19761;BME280;10039;42.632;23.408;2023-10-31T10:22:44;94820.59;;;18.32;48.61
19761;BME280;10039;42.632;23.408;2023-10-31T10:25:17;94778.00;;;18.03;48.24
19761;BME280;10039;42.632;23.408;2023-10-31T10:27:45;94807.44;;;18.25;48.21
19761;BME280;10039;42.632;23.408;2023-10-31T10:30:12;94814.97;;;18.35;46.77
19761;BME280;10039;42.632;23.408;2023-10-31T10:32:38;94797.84;;;18.38;47.01
19761;BME280;10039;42.632;23.408;2023-10-31T10:35:03;94795.81;;;18.48;47.62
19761;BME280;10039;42.632;23.408;2023-10-31T10:37:30;94796.00;;;18.59;47.24
19761;BME280;10039;42.632;23.408;2023-10-31T10:39:56;94795.06;;;18.62;47.15
19761;BME280;10039;42.632;23.408;2023-10-31T10:42:32;94785.09;;;18.68;47.43
19761;BME280;10039;42.632;23.408;2023-10-31T10:45:04;94789.56;;;18.71;48.38
19761;BME280;10039;42.632;23.408;2023-10-31T10:47:34;94775.69;;;18.78;48.54
19761;BME280;10039;42.632;23.408;2023-10-31T10:50:01;94771.38;;;18.86;48.06
19761;BME280;10039;42.632;23.408;2023-10-31T10:52:28;94776.78;;;18.86;48.28
19761;BME280;10039;42.632;23.408;2023-10-31T10:55:04;94771.91;;;19.04;49.12
19761;BME280;10039;42.632;23.408;2023-10-31T10:57:48;94758.56;;;19.15;50.45
19761;BME280;10039;42.632;23.408;2023-10-31T11:00:19;94750.63;;;19.12;48.58
19761;BME280;10039;42.632;23.408;2023-10-31T11:02:51;94753.06;;;19.24;48.26
19761;BME280;10039;42.632;23.408;2023-10-31T11:05:18;94743.16;;;19.21;47.66
19761;BME280;10039;42.632;23.408;2023-10-31T11:07:44;94736.81;;;19.24;47.83
19761;BME280;10039;42.632;23.408;2023-10-31T11:10:11;94728.16;;;19.40;48.30
19761;BME280;10039;42.632;23.408;2023-10-31T11:12:36;94725.50;;;19.45;47.45
19761;BME280;10039;42.632;23.408;2023-10-31T11:15:04;94726.31;;;19.51;47.01
19761;BME280;10039;42.632;23.408;2023-10-31T11:17:34;94724.94;;;19.56;46.11
19761;BME280;10039;42.632;23.408;2023-10-31T11:20:01;94725.25;;;19.63;45.66
19761;BME280;10039;42.632;23.408;2023-10-31T11:22:44;94720.94;;;19.71;46.00
19761;BME280;10039;42.632;23.408;2023-10-31T11:25:13;94724.09;;;19.70;45.53
19761;BME280;10039;42.632;23.408;2023-10-31T11:27:39;94714.22;;;19.67;46.04
19761;BME280;10039;42.632;23.408;2023-10-31T11:30:29;94686.06;;;19.59;46.79
19761;BME280;10039;42.632;23.408;2023-10-31T11:32:58;94702.56;;;19.81;44.71
19761;BME280;10039;42.632;23.408;2023-10-31T11:35:30;94693.47;;;19.84;44.16
19761;BME280;10039;42.632;23.408;2023-10-31T11:38:03;94694.03;;;19.88;45.01
19761;BME280;10039;42.632;23.408;2023-10-31T11:43:19;94687.50;;;20.00;46.14
19761;BME280;10039;42.632;23.408;2023-10-31T11:45:45;94643.13;;;19.72;45.71
19761;BME280;10039;42.632;23.408;2023-10-31T11:48:14;94666.22;;;19.93;44.57
19761;BME280;10039;42.632;23.408;2023-10-31T11:50:40;94659.84;;;19.96;44.70
19761;BME280;10039;42.632;23.408;2023-10-31T11:55:40;94658.34;;;20.15;45.76
19761;BME280;10039;42.632;23.408;2023-10-31T11:58:18;94658.16;;;20.24;46.05
19761;BME280;10039;42.632;23.408;2023-10-31T12:00:49;94654.75;;;20.29;45.59
19761;BME280;10039;42.632;23.408;2023-10-31T12:03:19;94654.56;;;20.32;45.26
19761;BME280;10039;42.632;23.408;2023-10-31T12:05:55;94633.88;;;20.34;45.57
19761;BME280;10039;42.632;23.408;2023-10-31T12:08:28;94645.06;;;20.47;46.25
19761;BME280;10039;42.632;23.408;2023-10-31T12:11:04;94641.41;;;20.50;46.09
19761;BME280;10039;42.632;23.408;2023-10-31T12:13:30;94641.91;;;20.54;46.08
19761;BME280;10039;42.632;23.408;2023-10-31T12:15:56;94637.09;;;20.38;44.40
19761;BME280;10039;42.632;23.408;2023-10-31T12:18:21;94625.13;;;20.50;46.16
19761;BME280;10039;42.632;23.408;2023-10-31T12:20:48;94617.03;;;20.61;46.04
19761;BME280;10039;42.632;23.408;2023-10-31T12:23:14;94623.94;;;20.57;45.73
19761;BME280;10039;42.632;23.408;2023-10-31T12:25:50;94629.19;;;20.66;46.00
19761;BME280;10039;42.632;23.408;2023-10-31T12:28:26;94634.06;;;20.62;45.68
19761;BME280;10039;42.632;23.408;2023-10-31T12:30:54;94625.50;;;20.69;46.13
19761;BME280;10039;42.632;23.408;2023-10-31T12:33:21;94633.13;;;20.70;45.48
19761;BME280;10039;42.632;23.408;2023-10-31T12:35:48;94625.97;;;20.67;45.13
19761;BME280;10039;42.632;23.408;2023-10-31T12:38:14;94616.59;;;20.68;44.98
19761;BME280;10039;42.632;23.408;2023-10-31T12:40:41;94612.75;;;20.80;44.78
19761;BME280;10039;42.632;23.408;2023-10-31T12:43:08;94614.97;;;20.82;44.95
19761;BME280;10039;42.632;23.408;2023-10-31T12:45:33;94565.47;;;20.50;43.87
19761;BME280;10039;42.632;23.408;2023-10-31T12:48:10;94594.16;;;20.68;44.30
19761;BME280;10039;42.632;23.408;2023-10-31T12:50:37;94581.69;;;20.81;45.20
19761;BME280;10039;42.632;23.408;2023-10-31T12:53:05;94583.22;;;20.93;45.48